createdAt,value
2018-01-08T00:00:00.094Z,5.60
2018-01-08T00:02:29.194Z,5.60
2018-01-08T00:04:58.606Z,5.60
2018-01-08T00:07:26.986Z,5.60
2018-01-08T00:09:55.372Z,5.60
2018-01-08T00:12:23.953Z,5.60
2018-01-08T00:14:52.598Z,5.60
2018-01-08T00:17:20.981Z,5.50
2018-01-08T00:19:49.568Z,5.60
2018-01-08T00:22:17.941Z,5.60
2018-01-08T00:24:46.333Z,5.50
2018-01-08T00:27:16.122Z,5.50
2018-01-08T00:29:44.959Z,5.50
2018-01-08T00:32:13.461Z,5.50
2018-01-08T00:34:42.001Z,5.60
2018-01-08T00:37:10.393Z,5.60
2018-01-08T00:39:39.053Z,5.50
2018-01-08T00:42:07.450Z,5.50
2018-01-08T00:44:36.210Z,5.60
2018-01-08T00:47:04.610Z,5.60
2018-01-08T00:49:33.224Z,5.60
2018-01-08T00:52:01.606Z,5.50
2018-01-08T00:54:30.278Z,5.60
2018-01-08T00:56:58.962Z,5.60
2018-01-08T00:59:27.618Z,5.60
2018-01-08T01:01:55.998Z,5.60
2018-01-08T01:04:24.377Z,5.50
2018-01-08T01:06:52.742Z,5.50
2018-01-08T01:09:21.189Z,5.50
2018-01-08T01:11:49.745Z,5.50
2018-01-08T01:14:18.116Z,5.50
2018-01-08T01:16:46.773Z,5.50
2018-01-08T01:19:16.201Z,5.50
2018-01-08T01:21:44.800Z,5.50
2018-01-08T01:24:13.185Z,5.50
2018-01-08T01:26:41.837Z,5.40
2018-01-08T01:29:10.337Z,5.40
2018-01-08T01:31:38.884Z,5.40
2018-01-08T01:34:07.261Z,5.40
2018-01-08T01:36:35.638Z,5.50
2018-01-08T01:39:03.404Z,5.50
2018-01-08T01:41:31.907Z,5.40
2018-01-08T01:44:00.558Z,5.50
2018-01-08T01:46:29.872Z,5.40
2018-01-08T01:49:09.613Z,5.30
2018-01-08T01:51:38.434Z,5.40
2018-01-08T01:54:07.078Z,5.40
2018-01-08T01:56:36.492Z,5.40
2018-01-08T01:59:04.878Z,5.30
2018-01-08T02:01:33.505Z,5.30
2018-01-08T02:04:01.997Z,5.30
2018-01-08T02:06:30.387Z,5.30
2018-01-08T02:08:59.037Z,5.30
2018-01-08T02:11:27.464Z,5.30
2018-01-08T02:13:55.849Z,5.30
2018-01-08T02:16:25.141Z,5.30
2018-01-08T02:18:53.707Z,5.30
2018-01-08T02:21:22.133Z,5.30
2018-01-08T02:23:50.785Z,5.30
2018-01-08T02:26:19.256Z,5.20
2018-01-08T02:28:47.704Z,5.30
2018-01-08T02:31:16.222Z,5.30
2018-01-08T02:33:44.591Z,5.20
2018-01-08T02:36:13.164Z,5.20
2018-01-08T02:38:41.806Z,5.20
2018-01-08T02:41:09.860Z,5.20
2018-01-08T02:43:38.346Z,5.20
2018-01-08T02:46:07.002Z,5.20
2018-01-08T02:48:35.382Z,5.20
2018-01-08T02:51:03.765Z,5.20
2018-01-08T02:53:32.433Z,5.20
2018-01-08T02:56:02.742Z,5.20
2018-01-08T02:58:32.178Z,5.20
2018-01-08T03:01:00.553Z,5.20
2018-01-08T03:03:28.926Z,5.10
2018-01-08T03:05:58.233Z,5.20
2018-01-08T03:08:26.609Z,5.10
2018-01-08T03:10:55.153Z,5.20
2018-01-08T03:13:23.827Z,5.20
2018-01-08T03:15:52.973Z,5.20
2018-01-08T03:18:21.445Z,5.20
2018-01-08T03:20:49.828Z,5.10
2018-01-08T03:23:19.025Z,5.20
2018-01-08T03:25:47.677Z,5.10
2018-01-08T03:28:16.127Z,5.20
2018-01-08T03:30:44.495Z,5.20
2018-01-08T03:33:13.188Z,5.20
2018-01-08T03:35:41.930Z,5.20
2018-01-08T03:38:10.302Z,5.20
2018-01-08T03:40:38.680Z,5.20
2018-01-08T03:43:07.293Z,5.20
2018-01-08T03:45:35.670Z,5.20
2018-01-08T03:48:04.046Z,5.20
2018-01-08T03:50:32.437Z,5.20
2018-01-08T03:53:00.818Z,5.20
2018-01-08T03:55:29.462Z,5.10
2018-01-08T03:57:58.870Z,5.10
2018-01-08T04:00:27.290Z,5.10
2018-01-08T04:02:55.949Z,5.10
2018-01-08T04:05:24.329Z,5.10
2018-01-08T04:07:52.933Z,5.10
2018-01-08T04:10:21.585Z,5.10
2018-01-08T04:12:49.969Z,5.10
2018-01-08T04:15:18.355Z,5.10
2018-01-08T04:17:47.013Z,5.10
2018-01-08T04:20:15.389Z,5.10
2018-01-08T04:22:44.807Z,5.10
2018-01-08T04:25:13.504Z,5.10
2018-01-08T04:27:42.011Z,5.10
2018-01-08T04:30:10.571Z,5.10
2018-01-08T04:32:39.241Z,5.10
2018-01-08T04:35:07.632Z,5.10
2018-01-08T04:37:36.111Z,5.00
2018-01-08T04:40:04.138Z,5.00
2018-01-08T04:42:32.774Z,5.00
2018-01-08T04:45:01.426Z,5.00
2018-01-08T04:47:30.947Z,4.90
2018-01-08T04:49:59.418Z,4.90
2018-01-08T04:52:28.066Z,4.90
2018-01-08T04:54:56.558Z,5.00
2018-01-08T04:57:25.010Z,4.90
2018-01-08T04:59:54.150Z,4.90
2018-01-08T05:02:22.533Z,4.90
2018-01-08T05:04:51.102Z,4.90
2018-01-08T05:07:20.513Z,5.00
2018-01-08T05:09:48.905Z,4.90
2018-01-08T05:12:17.289Z,4.90
2018-01-08T05:14:45.965Z,4.90
2018-01-08T05:17:14.337Z,4.90
2018-01-08T05:19:42.921Z,4.90
2018-01-08T05:22:11.299Z,4.90
2018-01-08T05:24:39.864Z,4.90
2018-01-08T05:27:09.285Z,4.90
2018-01-08T05:29:37.936Z,4.90
2018-01-08T05:32:06.327Z,4.80
2018-01-08T05:34:34.776Z,4.80
2018-01-08T05:37:03.456Z,4.80
2018-01-08T05:39:32.605Z,4.80
2018-01-08T05:42:00.986Z,4.80
2018-01-08T05:44:29.640Z,4.80
2018-01-08T05:46:58.014Z,4.80
2018-01-08T05:49:26.388Z,4.80
2018-01-08T05:51:54.894Z,4.80
2018-01-08T05:54:23.276Z,4.80
2018-01-08T05:56:51.862Z,4.80
2018-01-08T05:59:20.258Z,4.80
2018-01-08T06:01:48.926Z,4.80
2018-01-08T06:04:17.577Z,4.80
2018-01-08T06:06:45.947Z,4.80
2018-01-08T06:09:14.573Z,4.70
2018-01-08T06:11:43.150Z,4.70
2018-01-08T06:14:11.841Z,4.70
2018-01-08T06:16:40.348Z,4.70
2018-01-08T06:19:09.319Z,4.70
2018-01-08T06:21:37.981Z,4.70
2018-01-08T06:24:06.349Z,4.60
2018-01-08T06:26:35.859Z,4.70
2018-01-08T06:29:05.273Z,4.60
2018-01-08T06:31:33.652Z,4.60
2018-01-08T06:34:02.311Z,4.60
2018-01-08T06:36:30.690Z,4.70
2018-01-08T06:38:59.070Z,4.60
2018-01-08T06:41:27.590Z,4.60
2018-01-08T06:43:55.970Z,4.60
2018-01-08T06:46:24.338Z,4.60
2018-01-08T06:48:52.747Z,4.60
2018-01-08T06:51:21.510Z,4.60
2018-01-08T06:53:50.167Z,4.60
2018-01-08T06:56:18.838Z,4.60
2018-01-08T06:58:47.219Z,4.60
2018-01-08T07:01:15.815Z,4.60
2018-01-08T07:03:44.462Z,4.50
2018-01-08T07:06:13.812Z,4.50
2018-01-08T07:08:42.188Z,4.50
2018-01-08T07:11:10.981Z,4.50
2018-01-08T07:13:40.173Z,4.60
2018-01-08T07:16:08.639Z,4.50
2018-01-08T07:18:37.046Z,4.60
2018-01-08T07:21:05.435Z,4.50
2018-01-08T07:23:33.844Z,4.50
2018-01-08T07:26:02.505Z,4.60
2018-01-08T07:28:31.146Z,4.60
2018-01-08T07:30:59.815Z,4.60
2018-01-08T07:33:28.204Z,4.60
2018-01-08T07:35:56.568Z,4.50
2018-01-08T07:38:25.112Z,4.50
2018-01-08T07:40:53.776Z,4.50
2018-01-08T07:43:22.239Z,4.50
2018-01-08T07:45:50.609Z,4.50
2018-01-08T07:48:18.990Z,4.50
2018-01-08T07:50:47.507Z,4.50
2018-01-08T07:53:15.873Z,4.60
2018-01-08T07:55:44.259Z,4.70
2018-01-08T07:58:12.905Z,4.70
2018-01-08T08:00:41.521Z,4.70
2018-01-08T08:03:10.073Z,4.70
2018-01-08T08:05:38.725Z,4.60
2018-01-08T08:08:07.229Z,4.60
2018-01-08T08:10:35.633Z,4.70
2018-01-08T08:13:04.035Z,4.70
2018-01-08T08:15:32.700Z,4.50
2018-01-08T08:18:01.385Z,4.50
2018-01-08T08:20:30.134Z,4.60
2018-01-08T08:22:58.724Z,4.60
2018-01-08T08:25:27.224Z,4.70
2018-01-08T08:27:55.900Z,4.70
2018-01-08T08:30:24.566Z,4.70
2018-01-08T08:32:54.032Z,4.60
2018-01-08T08:35:22.696Z,4.60
2018-01-08T08:37:51.440Z,4.60
2018-01-08T08:40:20.862Z,4.70
2018-01-08T08:42:49.262Z,4.70
2018-01-08T08:45:17.698Z,4.70
2018-01-08T08:47:46.164Z,4.70
2018-01-08T08:50:14.815Z,4.80
2018-01-08T08:52:43.294Z,4.90
2018-01-08T08:55:11.683Z,4.80
2018-01-08T08:57:39.789Z,4.80
2018-01-08T09:00:08.335Z,4.80
2018-01-08T09:02:37.739Z,4.80
2018-01-08T09:05:07.211Z,4.80
2018-01-08T09:07:35.917Z,4.80
2018-01-08T09:10:04.846Z,4.80
2018-01-08T09:12:33.489Z,4.80
2018-01-08T09:15:02.165Z,4.80
2018-01-08T09:17:31.045Z,4.90
2018-01-08T09:19:59.421Z,5.00
2018-01-08T09:22:28.069Z,5.00
2018-01-08T09:24:57.488Z,5.10
2018-01-08T09:27:25.951Z,5.10
2018-01-08T09:29:54.332Z,5.10
2018-01-08T09:32:22.737Z,5.10
2018-01-08T09:34:51.109Z,5.00
2018-01-08T09:37:19.452Z,5.00
2018-01-08T09:39:48.152Z,5.00
2018-01-08T09:42:16.530Z,4.90
2018-01-08T09:44:45.952Z,4.90
2018-01-08T09:47:14.631Z,4.90
2018-01-08T09:49:43.280Z,5.00
2018-01-08T09:52:12.410Z,5.20
2018-01-08T09:54:40.821Z,5.20
2018-01-08T09:57:09.194Z,5.20
2018-01-08T09:59:37.582Z,5.30
2018-01-08T10:02:07.226Z,5.50
2018-01-08T10:04:46.775Z,5.60
2018-01-08T10:07:26.605Z,5.70
2018-01-08T10:10:06.518Z,5.70
2018-01-08T10:12:46.225Z,5.80
2018-01-08T10:15:25.756Z,5.70
2018-01-08T10:18:06.079Z,5.60
2018-01-08T10:20:35.225Z,5.60
2018-01-08T10:23:03.598Z,5.50
2018-01-08T10:25:31.999Z,5.50
2018-01-08T10:28:00.313Z,5.40
2018-01-08T10:30:28.269Z,5.30
2018-01-08T10:32:56.276Z,5.30
2018-01-08T10:35:24.384Z,5.30
2018-01-08T10:37:52.564Z,5.40
2018-01-08T10:40:21.921Z,5.50
2018-01-08T10:42:56.885Z,5.40
2018-01-08T10:45:30.756Z,5.50
2018-01-08T10:48:05.664Z,5.50
2018-01-08T10:50:40.462Z,5.60
2018-01-08T10:53:09.261Z,5.60
2018-01-08T10:55:37.582Z,5.70
2018-01-08T10:58:07.085Z,5.80
2018-01-08T11:00:35.493Z,5.80
2018-01-08T11:03:08.913Z,5.90
2018-01-08T11:05:36.723Z,5.90
2018-01-08T11:08:05.639Z,5.80
2018-01-08T11:10:35.807Z,5.90
2018-01-08T11:13:04.314Z,5.90
2018-01-08T11:15:32.023Z,6.00
2018-01-08T11:18:00.221Z,6.10
2018-01-08T11:20:29.081Z,6.00
2018-01-08T11:22:58.616Z,5.90
2018-01-08T11:25:28.085Z,5.80
2018-01-08T11:27:55.848Z,5.80
2018-01-08T11:30:24.509Z,5.80
2018-01-08T11:32:52.873Z,5.90
2018-01-08T11:35:20.638Z,5.90
2018-01-08T11:37:48.546Z,5.90
2018-01-08T11:40:16.876Z,5.80
2018-01-08T11:42:46.679Z,5.70
2018-01-08T11:45:14.402Z,5.70
2018-01-08T11:47:42.126Z,6.00
2018-01-08T11:50:10.046Z,6.10
2018-01-08T11:52:38.387Z,6.10
2018-01-08T11:55:07.362Z,6.40
2018-01-08T11:57:36.766Z,6.40
2018-01-08T12:00:04.883Z,6.40
2018-01-08T12:02:32.909Z,6.20
2018-01-08T12:05:00.759Z,6.10
2018-01-08T12:07:28.509Z,6.00
2018-01-08T12:09:57.172Z,6.00
2018-01-08T12:12:25.033Z,6.00
2018-01-08T12:14:52.838Z,6.20
2018-01-08T12:17:20.580Z,6.30
2018-01-08T12:19:48.974Z,6.30
2018-01-08T12:22:18.383Z,6.30
2018-01-08T12:24:47.345Z,6.30
2018-01-08T12:27:16.174Z,6.30
2018-01-08T12:29:44.206Z,6.40
2018-01-08T12:32:12.627Z,6.40
2018-01-08T12:34:42.215Z,6.30
2018-01-08T12:37:11.632Z,6.30
2018-01-08T12:39:40.020Z,6.20
2018-01-08T12:42:08.069Z,6.10
2018-01-08T12:44:36.539Z,6.20
2018-01-08T12:47:04.923Z,6.20
2018-01-08T12:49:33.033Z,6.30
2018-01-08T12:52:01.009Z,6.40
2018-01-08T12:54:29.409Z,6.50
2018-01-08T12:56:58.060Z,6.60
2018-01-08T12:59:26.091Z,6.40
2018-01-08T13:01:55.289Z,6.20
2018-01-08T13:04:23.022Z,6.10
2018-01-08T13:06:51.798Z,6.20
2018-01-08T13:09:19.790Z,6.20
2018-01-08T13:11:49.226Z,6.20
2018-01-08T13:14:17.894Z,6.20
2018-01-08T13:16:47.320Z,6.10
2018-01-08T13:19:15.790Z,6.10
2018-01-08T13:21:44.478Z,6.10
2018-01-08T13:24:12.551Z,6.20
2018-01-08T13:26:40.257Z,6.20
2018-01-08T13:29:09.251Z,6.20
2018-01-08T13:31:37.951Z,6.20
2018-01-08T13:34:06.737Z,6.30
2018-01-08T13:36:35.219Z,6.30
2018-01-08T13:39:02.941Z,6.30
2018-01-08T13:41:30.659Z,6.40
2018-01-08T13:43:58.734Z,6.20
2018-01-08T13:46:27.500Z,6.20
2018-01-08T13:48:55.484Z,6.10
2018-01-08T13:51:23.186Z,6.10
2018-01-08T13:53:51.924Z,6.20
2018-01-08T13:56:19.876Z,6.20
2018-01-08T13:58:48.340Z,6.20
2018-01-08T14:01:16.342Z,6.20
2018-01-08T14:03:44.046Z,6.20
2018-01-08T14:06:11.773Z,6.20
2018-01-08T14:08:40.545Z,6.10
2018-01-08T14:11:08.601Z,6.10
2018-01-08T14:13:36.857Z,6.10
2018-01-08T14:16:05.293Z,6.00
2018-01-08T14:18:34.695Z,5.80
2018-01-08T14:21:03.621Z,5.80
2018-01-08T14:23:32.058Z,5.80
2018-01-08T14:26:01.465Z,5.60
2018-01-08T14:28:29.940Z,5.60
2018-01-08T14:30:59.365Z,5.60
2018-01-08T14:33:27.748Z,5.60
2018-01-08T14:35:56.130Z,5.70
2018-01-08T14:38:25.025Z,5.70
2018-01-08T14:40:53.069Z,5.60
2018-01-08T14:43:20.782Z,5.60
2018-01-08T14:45:49.566Z,5.60
2018-01-08T14:48:18.086Z,5.50
2018-01-08T14:50:47.402Z,5.50
2018-01-08T14:53:15.864Z,5.50
2018-01-08T14:55:45.078Z,5.40
2018-01-08T14:58:13.330Z,5.40
2018-01-08T15:00:41.135Z,5.40
2018-01-08T15:03:09.821Z,5.40
2018-01-08T15:05:38.365Z,5.50
2018-01-08T15:08:08.262Z,5.40
2018-01-08T15:10:35.979Z,5.40
2018-01-08T15:13:04.005Z,5.40
2018-01-08T15:15:32.675Z,5.40
2018-01-08T15:18:01.505Z,5.40
2018-01-08T15:20:29.765Z,5.50
2018-01-08T15:22:57.813Z,5.50
2018-01-08T15:25:25.566Z,5.40
2018-01-08T15:27:54.216Z,5.40
2018-01-08T15:30:22.599Z,5.40
2018-01-08T15:32:50.973Z,5.40
2018-01-08T15:35:19.642Z,5.40
2018-01-08T15:37:48.838Z,5.40
2018-01-08T15:40:17.233Z,5.40
2018-01-08T15:42:45.978Z,5.40
2018-01-08T15:45:15.414Z,5.30
2018-01-08T15:47:43.842Z,5.30
2018-01-08T15:50:12.286Z,5.30
2018-01-08T15:52:40.744Z,5.30
2018-01-08T15:55:09.346Z,5.30
2018-01-08T15:57:38.034Z,5.20
2018-01-08T16:00:06.729Z,5.20
2018-01-08T16:02:35.529Z,5.20
2018-01-08T16:05:04.688Z,5.10
2018-01-08T16:07:33.439Z,5.10
2018-01-08T16:10:02.857Z,5.20
2018-01-08T16:12:31.137Z,5.20
2018-01-08T16:14:59.521Z,5.20
2018-01-08T16:17:28.194Z,5.10
2018-01-08T16:19:56.843Z,5.10
2018-01-08T16:22:26.065Z,5.10
2018-01-08T16:24:54.750Z,5.10
2018-01-08T16:27:23.130Z,5.10
2018-01-08T16:29:52.555Z,5.10
2018-01-08T16:32:20.941Z,5.10
2018-01-08T16:34:49.598Z,5.10
2018-01-08T16:37:18.161Z,5.10
2018-01-08T16:39:46.878Z,5.10
2018-01-08T16:42:15.529Z,5.10
2018-01-08T16:44:44.156Z,5.10
2018-01-08T16:47:12.582Z,5.00
2018-01-08T16:49:42.082Z,5.00
2018-01-08T16:52:10.730Z,5.00
2018-01-08T16:54:39.158Z,5.00
2018-01-08T16:57:07.536Z,5.00
2018-01-08T16:59:36.158Z,5.00
2018-01-08T17:02:04.638Z,4.90
2018-01-08T17:04:33.038Z,4.90
2018-01-08T17:07:01.694Z,4.90
2018-01-08T17:09:30.361Z,4.80
2018-01-08T17:11:59.802Z,4.80
2018-01-08T17:14:28.526Z,4.80
2018-01-08T17:16:57.413Z,4.80
2018-01-08T17:19:26.708Z,4.80
2018-01-08T17:21:55.102Z,4.70
2018-01-08T17:24:24.530Z,4.70
2018-01-08T17:26:52.994Z,4.70
2018-01-08T17:29:21.439Z,4.80
2018-01-08T17:31:50.239Z,4.70
2018-01-08T17:34:18.625Z,4.70
2018-01-08T17:36:47.281Z,4.70
2018-01-08T17:39:15.661Z,4.70
2018-01-08T17:41:44.331Z,4.70
2018-01-08T17:44:12.768Z,4.70
2018-01-08T17:46:42.094Z,4.70
2018-01-08T17:49:10.741Z,4.70
2018-01-08T17:51:40.193Z,4.70
2018-01-08T17:54:08.562Z,4.60
2018-01-08T17:56:36.959Z,4.70
2018-01-08T17:59:05.368Z,4.60
2018-01-08T18:01:34.582Z,4.60
2018-01-08T18:04:03.486Z,4.60
2018-01-08T18:06:32.917Z,4.60
2018-01-08T18:09:01.560Z,4.50
2018-01-08T18:11:30.142Z,4.60
2018-01-08T18:13:58.586Z,4.60
2018-01-08T18:16:27.250Z,4.50
2018-01-08T18:18:55.886Z,4.50
2018-01-08T18:21:26.097Z,4.50
2018-01-08T18:23:55.422Z,4.50
2018-01-08T18:26:24.834Z,4.50
2018-01-08T18:28:53.323Z,4.50
2018-01-08T18:31:21.986Z,4.60
2018-01-08T18:33:50.359Z,4.60
2018-01-08T18:36:19.798Z,4.60
2018-01-08T18:38:48.245Z,4.60
2018-01-08T18:41:16.745Z,4.60
2018-01-08T18:43:45.479Z,4.50
2018-01-08T18:46:14.654Z,4.50
2018-01-08T18:48:43.298Z,4.50
2018-01-08T18:51:11.967Z,4.50
2018-01-08T18:53:40.341Z,4.50
2018-01-08T18:56:08.779Z,4.60
2018-01-08T18:58:37.260Z,4.60
2018-01-08T19:01:05.909Z,4.60
2018-01-08T19:03:34.280Z,4.60
2018-01-08T19:06:03.052Z,4.60
2018-01-08T19:08:31.716Z,4.60
2018-01-08T19:11:00.237Z,4.50
2018-01-08T19:13:28.918Z,4.50
2018-01-08T19:15:57.359Z,4.60
2018-01-08T19:18:26.011Z,4.60
2018-01-08T19:20:54.396Z,4.50
2018-01-08T19:23:22.773Z,4.50
2018-01-08T19:25:51.146Z,4.50
2018-01-08T19:28:19.542Z,4.50
2018-01-08T19:30:48.189Z,4.50
2018-01-08T19:33:16.566Z,4.50
2018-01-08T19:35:44.941Z,4.50
2018-01-08T19:38:13.593Z,4.50
2018-01-08T19:40:43.016Z,4.50
2018-01-08T19:43:11.673Z,4.50
2018-01-08T19:45:41.086Z,4.50
2018-01-08T19:48:09.457Z,4.50
2018-01-08T19:50:38.915Z,4.50
2018-01-08T19:53:07.581Z,4.50
2018-01-08T19:55:36.125Z,4.50
2018-01-08T19:58:04.641Z,4.40
2018-01-08T20:00:33.129Z,4.40
2018-01-08T20:03:01.503Z,4.40
2018-01-08T20:05:29.885Z,4.40
2018-01-08T20:07:58.451Z,4.50
2018-01-08T20:10:26.817Z,4.40
2018-01-08T20:12:55.324Z,4.40
2018-01-08T20:15:23.925Z,4.40
2018-01-08T20:17:53.174Z,4.40
2018-01-08T20:20:21.554Z,4.50
2018-01-08T20:22:50.074Z,4.50
2018-01-08T20:25:18.458Z,4.40
2018-01-08T20:27:47.938Z,4.40
2018-01-08T20:30:16.332Z,4.30
2018-01-08T20:32:44.798Z,4.40
2018-01-08T20:35:13.475Z,4.40
2018-01-08T20:37:41.850Z,4.40
2018-01-08T20:40:10.219Z,4.40
2018-01-08T20:42:38.837Z,4.30
2018-01-08T20:45:07.210Z,4.50
2018-01-08T20:47:35.865Z,4.40
2018-01-08T20:50:05.343Z,4.30
2018-01-08T20:52:33.865Z,4.30
2018-01-08T20:55:02.239Z,4.40
2018-01-08T20:57:30.901Z,4.30
2018-01-08T20:59:59.321Z,4.30
2018-01-08T21:02:28.180Z,4.30
2018-01-08T21:04:56.747Z,4.30
2018-01-08T21:07:25.976Z,4.30
2018-01-08T21:09:54.626Z,4.30
2018-01-08T21:12:23.145Z,4.30
2018-01-08T21:14:51.532Z,4.30
2018-01-08T21:17:19.896Z,4.20
2018-01-08T21:19:48.296Z,4.20
2018-01-08T21:22:16.492Z,4.30
2018-01-08T21:24:45.143Z,4.20
2018-01-08T21:27:13.804Z,4.30
2018-01-08T21:29:42.698Z,4.30
2018-01-08T21:32:11.067Z,4.20
2018-01-08T21:34:39.453Z,4.20
2018-01-08T21:37:07.834Z,4.20
2018-01-08T21:39:36.212Z,4.20
2018-01-08T21:42:04.873Z,4.30
2018-01-08T21:44:33.251Z,4.30
2018-01-08T21:47:01.653Z,4.20
2018-01-08T21:49:30.347Z,4.20
2018-01-08T21:51:58.713Z,4.20
2018-01-08T21:54:27.209Z,4.20
2018-01-08T21:56:55.609Z,4.00
2018-01-08T21:59:24.256Z,4.20
2018-01-08T22:01:52.852Z,4.10
2018-01-08T22:04:21.860Z,4.10
2018-01-08T22:06:50.271Z,4.10
2018-01-08T22:09:18.648Z,4.10
2018-01-08T22:11:47.302Z,4.00
2018-01-08T22:14:15.682Z,4.00
2018-01-08T22:16:44.356Z,4.10
2018-01-08T22:19:13.622Z,4.00
2018-01-08T22:21:42.274Z,4.00
2018-01-08T22:24:10.662Z,4.00
2018-01-08T22:26:39.046Z,3.90
2018-01-08T22:29:07.676Z,3.90
2018-01-08T22:31:36.322Z,3.90
2018-01-08T22:34:05.758Z,3.90
2018-01-08T22:36:35.037Z,3.90
2018-01-08T22:39:03.287Z,3.90
2018-01-08T22:41:32.574Z,3.80
2018-01-08T22:44:00.942Z,3.80
2018-01-08T22:46:30.081Z,3.80
2018-01-08T22:48:58.509Z,3.80
2018-01-08T22:51:27.661Z,3.80
2018-01-08T22:53:56.069Z,3.80
2018-01-08T22:56:24.469Z,3.80
2018-01-08T22:58:53.610Z,3.80
2018-01-08T23:01:21.980Z,3.80
2018-01-08T23:03:50.372Z,3.80
2018-01-08T23:06:18.741Z,3.70
2018-01-08T23:08:47.901Z,3.80
2018-01-08T23:11:17.048Z,3.80
2018-01-08T23:13:45.415Z,3.80
2018-01-08T23:16:13.792Z,3.80
2018-01-08T23:18:42.181Z,3.80
2018-01-08T23:21:10.562Z,3.80
2018-01-08T23:23:38.938Z,3.70
2018-01-08T23:26:07.322Z,3.70
2018-01-08T23:28:35.690Z,3.70
2018-01-08T23:31:04.062Z,3.70
2018-01-08T23:33:32.466Z,3.70
2018-01-08T23:36:00.837Z,3.70
2018-01-08T23:38:29.213Z,3.60
2018-01-08T23:40:59.101Z,3.60
2018-01-08T23:43:27.469Z,3.60
2018-01-08T23:45:55.987Z,3.60
2018-01-08T23:48:25.161Z,3.60
2018-01-08T23:50:53.536Z,3.50
2018-01-08T23:53:21.919Z,3.60
2018-01-08T23:55:50.307Z,3.60
2018-01-08T23:58:18.687Z,3.50
